Latest Weather Observations for Woolshed

IDQ60801

Issued at 10:05 pm EST Thursday 17 April 2014 (issued every 30 minutes, with the page automatically refreshed every 10 minutes)

About weather observations | Map of weather stations | Latest weather observations for QLD | Other Formats
Station Details ID: 033307 Name: WOOLSHED Lat: -19.42 Lon: 146.54 Height: 556.04 m
Data from the previous 72 hours. | See also: Recent months at Woolshed
Date/Time
EST
Temp
°C
App
Temp
°C
Dew
Point
Rel
Hum
%
Delta-T
°C
Wind Press
QNH
hPa
Press
MSL
hPa
Rain
since 9 am
mm
Dir
 
Spd
km/h
Gust
km/h
Spd
kts
Gust
kts
17/10:00pm 20.7 23.3 20.5 99 0.1 NE 7 13 4 7 1019.5 1016.6 0.0
17/09:30pm 20.7 22.9 20.4 98 0.2 NE 9 15 5 8 1019.4 - 0.0
17/09:00pm 20.8 23.1 20.6 99 0.1 NE 9 15 5 8 1019.3 1016.4 0.0
17/08:30pm 20.9 23.6 20.7 99 0.1 NE 7 15 4 8 1019.0 - 0.0
17/08:00pm 21.1 23.5 20.8 98 0.2 NE 9 15 5 8 1018.6 1015.7 0.0
17/07:30pm 21.2 23.8 20.5 96 0.5 NNE 7 13 4 7 1018.4 - 0.0
17/07:00pm 21.4 24.0 20.4 94 0.7 NE 7 11 4 6 1017.8 1014.9 0.0
17/06:30pm 21.6 24.0 20.1 91 1.0 NNE 7 13 4 7 1017.3 - 0.0
17/06:00pm 21.7 24.0 19.8 89 1.2 NNE 7 13 4 7 1017.0 1014.1 0.0
17/05:30pm 22.2 24.3 20.1 88 1.4 NNE 9 15 5 8 1016.9 - 0.0
17/05:00pm 22.7 24.7 20.0 85 1.8 NE 9 17 5 9 1016.7 1013.8 0.0
17/04:30pm 24.6 26.7 20.1 76 3.0 N 9 24 5 13 1016.5 - 0.0
17/04:00pm 24.0 26.3 19.9 78 2.7 NNE 7 13 4 7 1016.5 1013.5 0.0
17/03:30pm 25.0 26.5 18.9 69 4.0 NNE 9 17 5 9 1016.7 - 0.0
17/03:00pm 25.3 27.8 20.3 74 3.3 NNE 7 15 4 8 1016.8 1013.9 0.0
17/02:30pm 24.1 26.2 20.2 79 2.6 NE 9 13 5 7 1017.1 - 0.0
17/02:00pm 23.6 25.1 18.9 75 3.0 N 9 17 5 9 1017.3 1014.4 0.0
17/01:30pm 24.2 26.7 19.9 77 2.8 N 6 11 3 6 1017.5 - 0.0
17/01:00pm 24.1 26.2 19.4 75 3.1 NNW 7 13 4 7 1017.8 1014.9 0.0
17/12:30pm 23.9 25.9 19.2 75 3.1 NNE 7 15 4 8 1018.0 - 0.0
17/12:00pm 24.6 26.9 19.4 73 3.4 NE 6 9 3 5 1018.7 1015.8 0.0
17/11:30am 23.6 26.0 18.9 75 3.1 ESE 4 7 2 4 1019.2 - 0.0
17/11:00am 23.7 25.8 19.0 75 3.1 NE 6 11 3 6 1019.5 1016.6 0.0
17/10:30am 23.8 24.5 18.0 70 3.7 NNE 11 19 6 10 1019.7 - 0.0
17/10:00am 24.1 25.3 19.0 73 3.3 NNE 11 17 6 9 1019.7 1016.8 0.0
17/09:30am 23.4 24.9 19.8 80 2.4 ENE 11 19 6 10 1019.5 - 0.0
17/09:00am 22.3 23.5 19.1 82 2.1 NE 11 17 6 9 1019.4 1016.5 0.0
17/08:30am 22.4 24.7 19.8 85 1.7 ENE 7 13 4 7 1019.1 - 0.0
17/08:00am 22.0 24.6 20.5 91 1.0 ENE 7 13 4 7 1018.7 1015.8 0.0
17/07:30am 20.8 23.4 20.5 98 0.2 NE 7 15 4 8 1018.5 - 0.0
17/07:00am 20.3 23.3 20.0 98 0.2 ENE 4 7 2 4 1017.9 1015.0 0.0
17/06:30am 19.5 22.4 19.0 97 0.3 NE 2 4 1 2 1017.5 - 0.0
17/06:00am 19.6 22.1 19.1 97 0.3 ENE 4 6 2 3 1017.1 1014.2 0.0
17/05:30am 19.5 21.9 18.8 96 0.4 E 4 6 2 3 1016.8 - 0.0
17/05:00am 20.1 22.3 19.6 97 0.3 ENE 7 15 4 8 1016.7 1013.8 0.0
17/04:30am 20.0 22.3 19.5 97 0.3 NE 6 11 3 6 1016.5 - 0.0
17/04:00am 20.1 23.0 19.8 98 0.2 ENE 4 9 2 5 1016.5 1013.5 0.0
17/03:30am 20.5 23.2 20.3 99 0.1 NE 6 9 3 5 1016.6 - 0.0
17/03:00am 20.6 23.4 20.4 99 0.1 NE 6 9 3 5 1016.6 1013.6 0.0
17/02:30am 20.7 23.3 20.4 98 0.2 NNE 7 13 4 7 1016.8 - 0.0
17/02:00am 20.7 23.2 20.2 97 0.3 ENE 7 15 4 8 1016.7 1013.8 0.0
17/01:30am 20.8 23.6 20.5 98 0.2 NE 6 9 3 5 1017.0 - 0.0
17/01:00am 20.9 23.6 20.6 98 0.2 ENE 7 13 4 7 1017.2 1014.3 0.0
17/12:30am 21.0 23.7 20.7 98 0.2 ENE 7 17 4 9 1017.5 - 0.0
17/12:00am 21.0 22.9 20.5 97 0.3 NE 11 20 6 11 1017.7 1014.8 0.0
 
Date/Time
EST
Temp
°C
App
Temp
°C
Dew
Point
Rel
Hum
%
Delta-T
°C
Wind Press
QNH
hPa
Press
MSL
hPa
Rain
since 9 am
mm
Dir
 
Spd
km/h
Gust
km/h
Spd
kts
Gust
kts
16/11:30pm 20.9 23.6 20.7 99 0.1 NE 7 15 4 8 1017.8 - 0.0
16/11:00pm 20.9 23.2 20.7 99 0.1 NE 9 17 5 9 1017.8 1014.9 0.0
16/10:30pm 21.1 23.5 20.9 99 0.1 NE 9 17 5 9 1017.7 - 0.0
16/10:00pm 21.1 23.5 20.9 99 0.1 NE 9 17 5 9 1017.9 1015.0 0.0
16/09:30pm 21.0 23.8 20.8 99 0.1 NE 7 17 4 9 1017.8 - 0.0
16/09:00pm 21.1 24.0 21.1 100 0.0 NE 7 13 4 7 1017.4 1014.5 0.0
16/08:30pm 21.1 23.9 20.9 99 0.1 NE 7 13 4 7 1017.2 - 0.0
16/08:00pm 21.2 24.3 21.0 99 0.1 NE 6 11 3 6 1017.0 1014.1 0.0
16/07:30pm 21.3 24.2 21.1 99 0.1 NNE 7 15 4 8 1016.6 - 0.0
16/07:00pm 21.4 24.3 21.1 98 0.2 NNE 7 15 4 8 1016.1 1013.2 0.0
16/06:30pm 21.4 24.0 20.4 94 0.7 NNE 7 15 4 8 1015.9 - 0.0
16/06:00pm 21.8 24.3 20.3 91 1.0 NNE 7 19 4 10 1015.6 1012.7 0.0
16/05:30pm 22.6 25.3 20.7 89 1.3 NNE 7 13 4 7 1015.6 - 0.0
16/05:00pm 23.1 25.2 20.2 84 1.9 NNE 9 17 5 9 1015.5 1012.6 0.0
16/04:30pm 23.7 26.4 20.6 83 2.1 NNE 7 15 4 8 1015.4 - 0.0
16/04:00pm 24.6 26.5 20.5 78 2.7 NNE 11 19 6 10 1015.1 1012.2 0.0
16/03:30pm 24.7 27.0 20.6 78 2.7 NNE 9 19 5 10 1015.1 - 0.0
16/03:00pm 24.4 26.6 20.5 79 2.6 NE 9 17 5 9 1015.2 1012.3 0.0
16/02:30pm 24.2 26.3 20.1 78 2.7 NNE 9 17 5 9 1015.3 - 0.0
16/02:00pm 24.3 26.6 20.6 80 2.5 NNE 9 17 5 9 1015.7 1012.8 0.0
16/01:30pm 23.9 26.5 20.4 81 2.3 NNE 7 13 4 7 1016.1 - 0.0
16/01:00pm 25.7 28.5 21.6 78 2.8 NNE 9 17 5 9 1016.3 1013.3 0.0
16/12:30pm 24.5 27.1 20.4 78 2.7 NNE 7 15 4 8 1016.6 - 0.0
16/12:00pm 24.7 26.6 20.6 78 2.7 NNE 11 17 6 9 1017.0 1014.1 0.0
16/11:30am 24.6 27.1 20.3 77 2.9 NNE 7 15 4 8 1017.4 - 0.0
16/11:00am 24.4 27.0 20.5 79 2.6 NE 7 13 4 7 1017.5 1014.6 0.0
16/10:30am 22.9 25.8 20.6 87 1.5 ENE 6 11 3 6 1017.8 - 0.0
16/10:00am 22.4 24.9 20.3 88 1.4 ENE 7 17 4 9 1018.0 1015.1 0.0
16/09:30am 23.0 25.7 20.7 87 1.5 ENE 7 13 4 7 1018.0 - 0.0
16/09:00am 22.9 25.6 20.6 87 1.5 ENE 7 13 4 7 1017.9 1015.0 0.0
16/08:30am 21.8 24.3 20.3 91 1.0 NE 7 15 4 8 1017.7 - 0.0
16/08:00am 21.7 24.4 20.3 92 0.9 ENE 6 15 3 8 1017.6 1014.7 0.0
16/07:30am 21.2 23.9 20.7 97 0.3 E 7 13 4 7 1017.4 - 0.0
16/07:00am 20.6 23.8 20.4 99 0.1 ENE 4 9 2 5 1017.3 1014.4 0.0
16/06:30am 20.5 23.0 20.3 99 0.1 ENE 7 15 4 8 1016.9 - 0.0
16/06:00am 20.7 23.4 20.7 100 0.0 ENE 7 17 4 9 1016.5 1013.5 0.0
16/05:30am 20.6 23.3 20.6 100 0.0 ENE 7 15 4 8 1016.0 - 0.0
16/05:00am 20.6 22.9 20.6 100 0.0 ENE 9 17 5 9 1016.1 1013.2 0.0
16/04:30am 20.6 23.3 20.6 100 0.0 NE 7 15 4 8 1015.9 - 0.0
16/04:00am 20.5 22.4 20.5 100 0.0 NE 11 17 6 9 1015.5 1012.6 0.0
16/03:30am 20.5 22.7 20.5 100 0.0 NE 9 17 5 9 1015.4 - 0.0
16/03:00am 20.6 22.9 20.6 100 0.0 ENE 9 17 5 9 1015.5 1012.6 0.0
16/02:30am 20.5 23.1 20.5 100 0.0 NE 7 15 4 8 1015.6 - 0.0
16/02:00am 20.6 23.5 20.6 100 0.0 NE 6 13 3 7 1015.8 1012.9 0.0
16/01:30am 20.6 22.9 20.6 100 0.0 NE 9 13 5 7 1015.9 - 0.0
16/01:00am 20.6 23.3 20.6 100 0.0 ENE 7 13 4 7 1016.4 1013.4 0.0
16/12:30am 20.5 23.3 20.5 100 0.0 NE 6 11 3 6 1016.7 - 0.0
16/12:00am 20.8 23.2 20.8 100 0.0 ENE 9 15 5 8 1017.0 1014.1 0.0
 
Date/Time
EST
Temp
°C
App
Temp
°C
Dew
Point
Rel
Hum
%
Delta-T
°C
Wind Press
QNH
hPa
Press
MSL
hPa
Rain
since 9 am
mm
Dir
 
Spd
km/h
Gust
km/h
Spd
kts
Gust
kts
15/11:30pm 20.9 23.9 20.9 100 0.0 NE 6 15 3 8 1017.1 - 0.0
15/11:00pm 20.9 23.3 20.9 100 0.0 NE 9 17 5 9 1017.0 1014.1 0.0
15/10:30pm 21.0 23.1 21.0 100 0.0 NE 11 19 6 10 1017.1 - 0.0
15/10:00pm 21.2 23.8 21.2 100 0.0 NE 9 19 5 10 1016.9 1014.0 0.0
15/09:30pm 21.3 24.0 21.3 100 0.0 NE 9 17 5 9 1016.9 - 0.0
15/09:00pm 21.3 24.5 21.3 100 0.0 NNE 6 9 3 5 1016.7 1013.8 0.0
15/08:30pm 21.3 24.4 21.1 99 0.1 NNE 6 11 3 6 1016.3 - 0.0
15/08:00pm 21.4 24.5 21.1 98 0.2 NNE 6 11 3 6 1016.1 1013.2 0.0
15/07:30pm 21.3 24.3 20.8 97 0.3 NNE 6 9 3 5 1016.0 - 0.0
15/07:00pm 21.6 25.0 20.9 96 0.5 NE 4 7 2 4 1015.8 1012.9 0.0
15/06:30pm 21.8 24.9 21.0 95 0.5 NNE 6 11 3 6 1015.4 - 0.0
15/06:00pm 21.9 24.8 20.7 93 0.8 NNE 6 9 3 5 1015.2 1012.3 0.0
15/05:30pm 22.2 25.0 20.8 92 0.9 NNE 7 11 4 6 1014.9 - 0.0
15/05:00pm 22.6 25.5 21.1 91 1.0 NNE 7 13 4 7 1014.7 1011.7 0.0
15/04:30pm 23.6 26.8 21.7 89 1.3 NNE 7 13 4 7 1014.4 - 0.0
15/04:00pm 23.9 27.0 21.4 86 1.7 NNE 7 15 4 8 1014.2 1011.3 0.0
15/03:30pm 23.6 26.4 21.5 88 1.4 NNE 9 17 5 9 1014.2 - 0.0
15/03:00pm 24.2 26.6 20.9 82 2.2 NNE 9 19 5 10 1014.2 1011.3 0.0
15/02:30pm 23.8 26.5 20.7 83 2.1 NNE 7 11 4 6 1014.6 - 0.0
15/02:00pm 23.4 26.2 21.5 89 1.3 NE 9 17 5 9 1014.7 1011.7 0.0
15/01:30pm 24.3 27.3 22.0 87 1.6 NNE 9 15 5 8 1015.0 - 0.0
15/01:00pm 23.8 26.0 20.3 81 2.3 NNE 9 15 5 8 1015.3 1012.4 0.0
15/12:30pm 24.3 26.7 20.8 81 2.3 NNE 9 19 5 10 1015.7 - 0.0
15/12:00pm 24.1 26.5 20.8 82 2.2 NNE 9 17 5 9 1016.3 1013.3 0.0
15/11:30am 23.6 26.1 20.3 82 2.2 NE 7 15 4 8 1016.6 - 0.0
15/11:00am 24.6 27.8 21.7 84 2.0 NNE 7 13 4 7 1016.8 1013.9 0.0
15/10:30am 23.1 25.9 20.8 87 1.5 NNE 7 13 4 7 1017.1 - 0.0
15/10:00am 23.1 26.2 21.0 88 1.4 NNE 6 15 3 8 1017.1 1014.2 0.0
15/09:30am 22.6 25.6 21.2 92 0.9 NE 7 15 4 8 1017.2 - 0.0
15/09:00am 21.9 24.4 21.1 95 0.5 NE 9 20 5 11 1017.2 1014.3 0.0
15/08:30am 21.4 23.7 21.4 100 0.0 NE 11 24 6 13 1016.6 - 0.0
15/08:00am 20.9 23.3 20.9 100 0.0 NE 9 17 5 9 1016.1 1013.2 0.0
15/07:30am 20.9 22.6 20.9 100 0.0 NE 13 22 7 12 1015.9 - 0.0
15/07:00am 20.6 22.5 20.6 100 0.0 ENE 11 20 6 11 1015.6 1012.7 0.0
15/06:30am 20.7 23.0 20.7 100 0.0 NE 9 19 5 10 1015.3 - 0.0
15/06:00am 20.6 22.5 20.6 100 0.0 NE 11 19 6 10 1015.1 1012.2 0.0
15/05:30am 20.8 22.8 20.8 100 0.0 NE 11 19 6 10 1014.9 - 0.0
15/05:00am 20.8 22.8 20.8 100 0.0 NE 11 24 6 13 1014.6 1011.6 0.0
15/04:30am 20.8 22.8 20.8 100 0.0 NE 11 19 6 10 1014.6 - 0.0
15/04:00am 20.7 23.4 20.7 100 0.0 NE 7 13 4 7 1014.5 1011.5 0.0
15/03:30am 20.8 23.8 20.8 100 0.0 NE 6 13 3 7 1014.5 - 0.0
15/03:00am 20.7 23.4 20.7 100 0.0 NNE 7 13 4 7 1014.2 1011.3 0.0
15/02:30am 20.8 23.6 20.8 100 0.0 NNE 7 15 4 8 1014.4 - 0.0
15/02:00am 20.8 23.8 20.8 100 0.0 NNE 6 9 3 5 1014.5 1011.5 0.0
15/01:30am 20.8 23.8 20.8 100 0.0 NNE 6 11 3 6 1014.5 - 0.0
15/01:00am 20.9 23.9 20.9 100 0.0 NNE 6 9 3 5 1014.6 1011.6 0.0
15/12:30am 20.7 23.6 20.7 100 0.0 N 6 7 3 4 1014.9 - 0.0
15/12:00am 20.3 23.4 20.3 100 0.0 NNE 4 7 2 4 1014.9 1011.9 0.0
 
Date/Time
EST
Temp
°C
App
Temp
°C
Dew
Point
Rel
Hum
%
Delta-T
°C
Wind Press
QNH
hPa
Press
MSL
hPa
Rain
since 9 am
mm
Dir
 
Spd
km/h
Gust
km/h
Spd
kts
Gust
kts
14/11:30pm 20.0 22.9 19.8 99 0.1 NNE 4 7 2 4 1015.0 - 0.0
14/11:00pm 19.8 23.3 19.5 98 0.2 CALM 0 0 0 0 1015.1 1012.2 0.0
14/10:30pm 20.1 23.8 19.9 99 0.1 CALM 0 2 0 1 1015.2 - 0.0

Other Formats:

Comma delimited format used in spreadsheet applications
http://www.bom.gov.au/fwo/IDQ60801/IDQ60801.95293.axf

JavaScript Object Notation format (JSON) in row-major order
http://www.bom.gov.au/fwo/IDQ60801/IDQ60801.95293.json